createdAt,value
2022-12-23T00:01:07.602Z,15.60
2022-12-23T00:03:35.255Z,15.48
2022-12-23T00:06:07.561Z,14.05
2022-12-23T00:08:34.556Z,14.18
2022-12-23T00:11:01.251Z,13.23
2022-12-23T00:13:46.303Z,17.20
2022-12-23T00:16:14.424Z,18.20
2022-12-23T00:18:41.786Z,14.48
2022-12-23T00:21:11.824Z,11.73
2022-12-23T00:23:40.310Z,20.10
2022-12-23T00:26:07.652Z,16.52
2022-12-23T00:28:34.005Z,15.52
2022-12-23T00:31:01.877Z,18.55
2022-12-23T00:33:31.110Z,14.88
2022-12-23T00:35:57.741Z,15.60
2022-12-23T00:38:43.377Z,18.83
2022-12-23T00:41:34.322Z,15.73
2022-12-23T00:44:01.331Z,16.50
2022-12-23T00:46:28.383Z,15.07
2022-12-23T00:49:13.484Z,13.00
2022-12-23T00:51:40.132Z,12.65
2022-12-23T00:54:06.829Z,16.13
2022-12-23T00:56:33.509Z,14.02
2022-12-23T00:59:00.151Z,10.15
2022-12-23T01:01:45.261Z,15.70
2022-12-23T01:04:32.945Z,12.27
2022-12-23T01:06:59.952Z,12.95
2022-12-23T01:09:26.629Z,12.68
2022-12-23T01:11:53.391Z,12.25
2022-12-23T01:14:20.539Z,14.17
2022-12-23T01:16:47.157Z,10.02
2022-12-23T01:19:13.715Z,11.35
2022-12-23T01:21:41.552Z,13.60
2022-12-23T01:24:08.602Z,11.90
2022-12-23T01:26:35.944Z,16.33
2022-12-23T01:29:02.403Z,11.10
2022-12-23T01:31:29.892Z,12.95
2022-12-23T01:33:56.718Z,14.05
2022-12-23T01:36:23.760Z,13.00
2022-12-23T01:38:50.485Z,11.77
2022-12-23T01:41:43.226Z,11.32
2022-12-23T01:44:46.904Z,12.45
2022-12-23T01:47:20.026Z,12.35
2022-12-23T01:49:47.383Z,12.65
2022-12-23T01:52:14.599Z,10.67
2022-12-23T01:54:41.825Z,17.33
2022-12-23T01:57:12.084Z,15.05
2022-12-23T01:59:58.140Z,12.73
2022-12-23T02:02:45.075Z,9.98
2022-12-23T02:05:12.078Z,12.80
2022-12-23T02:07:57.700Z,11.05
2022-12-23T02:10:30.930Z,12.15
2022-12-23T02:13:08.847Z,9.52
2022-12-23T02:16:15.163Z,12.05
2022-12-23T02:19:01.113Z,8.17
2022-12-23T02:21:39.754Z,11.00
2022-12-23T02:24:30.291Z,10.95
2022-12-23T02:27:08.619Z,12.93
2022-12-23T02:30:02.416Z,12.20
2022-12-23T02:32:40.223Z,11.67
2022-12-23T02:35:54.359Z,8.48
2022-12-23T02:38:30.101Z,10.18
2022-12-23T02:41:34.254Z,12.20
2022-12-23T02:44:11.962Z,12.15
2022-12-23T02:46:54.516Z,8.97
2022-12-23T02:49:30.718Z,13.95
2022-12-23T02:52:01.510Z,12.13
2022-12-23T02:54:35.053Z,10.55
2022-12-23T02:57:04.830Z,12.77
2022-12-23T02:59:44.046Z,9.67
2022-12-23T03:02:10.583Z,11.05
2022-12-23T03:04:38.102Z,14.60
2022-12-23T03:07:08.036Z,13.15
2022-12-23T03:10:03.609Z,13.45
2022-12-23T03:12:56.066Z,12.63
2022-12-23T03:15:41.225Z,12.85
2022-12-23T03:18:41.036Z,13.68
2022-12-23T03:21:14.668Z,15.60
2022-12-23T03:23:55.253Z,10.57
2022-12-23T03:26:30.390Z,14.03
2022-12-23T03:29:02.753Z,13.25
2022-12-23T03:31:31.485Z,13.32
2022-12-23T03:34:08.341Z,9.07
2022-12-23T03:36:40.287Z,11.38
2022-12-23T03:39:12.949Z,11.90
2022-12-23T03:41:47.118Z,12.65
2022-12-23T03:44:22.368Z,9.25
2022-12-23T03:46:54.797Z,10.10
2022-12-23T03:49:30.093Z,10.25
2022-12-23T03:52:02.779Z,9.80
2022-12-23T03:54:40.357Z,11.35
2022-12-23T03:57:08.680Z,10.13
2022-12-23T03:59:39.014Z,11.63
2022-12-23T04:02:23.481Z,10.68
2022-12-23T04:05:06.118Z,12.67
2022-12-23T04:07:41.669Z,14.07
2022-12-23T04:10:09.546Z,14.18
2022-12-23T04:12:36.741Z,14.70
2022-12-23T04:15:09.015Z,12.75
2022-12-23T04:17:38.826Z,10.07
2022-12-23T04:20:06.929Z,10.63
2022-12-23T04:22:33.402Z,10.70
2022-12-23T04:24:59.867Z,9.05
2022-12-23T04:27:26.292Z,13.13
2022-12-23T04:29:52.883Z,9.20
2022-12-23T04:32:19.244Z,8.68
2022-12-23T04:34:45.646Z,9.60
2022-12-23T04:37:12.130Z,8.77
2022-12-23T04:39:38.555Z,7.90
2022-12-23T04:42:04.998Z,10.70
2022-12-23T04:44:31.403Z,10.60
2022-12-23T04:46:58.017Z,11.00
2022-12-23T04:49:24.416Z,9.38
2022-12-23T04:51:50.962Z,10.95
2022-12-23T04:54:17.330Z,11.60
2022-12-23T04:56:43.747Z,12.43
2022-12-23T04:59:10.804Z,8.88
2022-12-23T05:01:37.389Z,8.68
2022-12-23T05:04:03.999Z,9.93
2022-12-23T05:06:30.477Z,10.47
2022-12-23T05:08:56.828Z,7.95
2022-12-23T05:11:23.325Z,12.90
2022-12-23T05:13:49.707Z,8.68
2022-12-23T05:16:16.146Z,8.68
2022-12-23T05:18:42.724Z,8.93
2022-12-23T05:21:09.163Z,9.55
2022-12-23T05:23:35.720Z,10.88
2022-12-23T05:26:02.156Z,14.73
2022-12-23T05:28:29.083Z,11.00
2022-12-23T05:31:03.972Z,9.70
2022-12-23T05:33:30.609Z,10.07
2022-12-23T05:35:58.033Z,8.70
2022-12-23T05:38:25.213Z,14.68
2022-12-23T05:40:51.751Z,11.20
2022-12-23T05:43:18.530Z,10.07
2022-12-23T05:45:45.194Z,8.95
2022-12-23T05:48:11.635Z,10.23
2022-12-23T05:50:39.100Z,12.07
2022-12-23T05:53:06.914Z,10.20
2022-12-23T05:55:33.446Z,11.83
2022-12-23T05:57:59.964Z,9.15
2022-12-23T06:00:26.629Z,7.38
2022-12-23T06:02:54.138Z,10.48
2022-12-23T06:05:21.215Z,6.97
2022-12-23T06:07:47.660Z,7.73
2022-12-23T06:10:13.999Z,8.02
2022-12-23T06:12:40.432Z,8.73
2022-12-23T06:15:07.265Z,8.10
2022-12-23T06:17:33.658Z,8.10
2022-12-23T06:20:00.126Z,8.03
2022-12-23T06:22:26.592Z,7.68
2022-12-23T06:24:53.101Z,8.48
2022-12-23T06:27:19.524Z,8.07
2022-12-23T06:29:46.063Z,7.15
2022-12-23T06:32:12.482Z,7.83
2022-12-23T06:34:38.980Z,9.93
2022-12-23T06:37:05.446Z,7.55
2022-12-23T06:39:31.909Z,8.52
2022-12-23T06:41:58.498Z,7.40
2022-12-23T06:44:24.887Z,8.30
2022-12-23T06:46:51.307Z,7.25
2022-12-23T06:49:17.696Z,8.18
2022-12-23T06:51:44.125Z,7.45
2022-12-23T06:54:11.948Z,9.52
2022-12-23T06:56:39.056Z,7.53
2022-12-23T06:59:05.717Z,5.93
2022-12-23T07:01:32.220Z,6.65
2022-12-23T07:03:58.686Z,7.53
2022-12-23T07:06:25.025Z,9.23
2022-12-23T07:08:51.437Z,9.57
2022-12-23T07:11:18.521Z,9.45
2022-12-23T07:13:46.447Z,10.65
2022-12-23T07:16:13.456Z,8.48
2022-12-23T07:18:40.265Z,8.55
2022-12-23T07:21:13.356Z,8.83
2022-12-23T07:23:44.436Z,11.65
2022-12-23T07:26:10.757Z,9.27
2022-12-23T07:28:37.211Z,12.98
2022-12-23T07:31:06.338Z,11.35
2022-12-23T07:33:32.840Z,12.33
2022-12-23T07:35:59.684Z,11.60
2022-12-23T07:38:26.251Z,12.70
2022-12-23T07:40:52.683Z,10.73
2022-12-23T07:43:19.053Z,10.70
2022-12-23T07:45:45.437Z,9.60
2022-12-23T07:48:11.888Z,11.52
2022-12-23T07:50:38.229Z,13.50
2022-12-23T07:53:04.676Z,9.77
2022-12-23T07:55:31.171Z,11.13
2022-12-23T07:57:57.691Z,9.73
2022-12-23T08:00:24.080Z,9.82
2022-12-23T08:02:50.661Z,10.25
2022-12-23T08:05:17.319Z,11.48
2022-12-23T08:07:45.205Z,12.20
2022-12-23T08:10:12.035Z,11.60
2022-12-23T08:12:38.506Z,11.15
2022-12-23T08:15:05.535Z,12.32
2022-12-23T08:17:31.945Z,10.45
2022-12-23T08:19:58.406Z,15.82
2022-12-23T08:22:24.903Z,15.90
2022-12-23T08:24:52.584Z,17.65
2022-12-23T08:27:19.241Z,14.73
2022-12-23T08:29:45.690Z,20.27
2022-12-23T08:32:12.392Z,19.17
2022-12-23T08:34:38.941Z,16.37
2022-12-23T08:37:05.688Z,18.83
2022-12-23T08:39:32.258Z,20.58
2022-12-23T08:41:58.796Z,19.73
2022-12-23T08:44:27.875Z,18.95
2022-12-23T08:46:54.910Z,19.73
2022-12-23T08:49:21.370Z,23.70
2022-12-23T08:51:48.261Z,23.42
2022-12-23T08:54:15.436Z,21.77
2022-12-23T08:56:42.396Z,25.10
2022-12-23T08:59:19.584Z,22.07
2022-12-23T09:01:47.721Z,19.77
2022-12-23T09:04:14.547Z,20.23
2022-12-23T09:06:42.254Z,24.23
2022-12-23T09:09:10.543Z,17.95
2022-12-23T09:11:37.770Z,21.60
2022-12-23T09:14:05.460Z,27.15
2022-12-23T09:16:32.069Z,24.25
2022-12-23T09:18:58.677Z,23.10
2022-12-23T09:21:25.372Z,24.45
2022-12-23T09:23:52.331Z,23.83
2022-12-23T09:26:24.353Z,27.75
2022-12-23T09:28:51.005Z,29.23
2022-12-23T09:31:18.663Z,27.23
2022-12-23T09:33:50.616Z,28.35
2022-12-23T09:36:17.920Z,33.37
2022-12-23T09:38:44.744Z,35.17
2022-12-23T09:41:48.782Z,34.08
2022-12-23T09:44:33.937Z,29.27
2022-12-23T09:47:04.436Z,33.05
2022-12-23T09:49:30.951Z,31.60
2022-12-23T09:52:01.724Z,36.08
2022-12-23T09:54:32.135Z,34.55
2022-12-23T09:57:03.642Z,39.22
2022-12-23T09:59:38.908Z,39.13
2022-12-23T10:02:34.609Z,37.77
2022-12-23T10:05:16.200Z,36.42
2022-12-23T10:07:54.769Z,39.08
2022-12-23T10:10:48.163Z,26.70
2022-12-23T10:13:39.444Z,30.27
2022-12-23T10:16:20.386Z,30.13
2022-12-23T10:19:15.317Z,28.48
2022-12-23T10:21:48.185Z,26.05
2022-12-23T10:24:22.521Z,23.58
2022-12-23T10:26:54.405Z,24.92
2022-12-23T10:29:24.179Z,24.27
2022-12-23T10:32:20.904Z,22.20
2022-12-23T10:35:24.282Z,30.17
2022-12-23T10:38:23.020Z,30.63
2022-12-23T10:41:20.461Z,18.08
2022-12-23T10:43:57.864Z,22.27
2022-12-23T10:46:45.103Z,20.15
2022-12-23T10:49:37.808Z,23.20
2022-12-23T10:52:14.385Z,21.13
2022-12-23T10:54:43.996Z,22.52
2022-12-23T10:57:12.191Z,21.30
2022-12-23T10:59:38.798Z,23.77
2022-12-23T11:02:15.145Z,23.92
2022-12-23T11:04:47.295Z,20.83
2022-12-23T11:07:46.962Z,23.10
2022-12-23T11:10:19.804Z,22.13
2022-12-23T11:12:49.503Z,22.88
2022-12-23T11:15:36.984Z,26.15
2022-12-23T11:18:07.808Z,25.35
2022-12-23T11:20:35.698Z,24.67
2022-12-23T11:23:03.924Z,25.63
2022-12-23T11:25:32.184Z,29.13
2022-12-23T11:28:10.771Z,28.27
2022-12-23T11:30:59.322Z,31.70
2022-12-23T11:33:27.369Z,29.42
2022-12-23T11:36:17.345Z,30.43
2022-12-23T11:38:51.665Z,33.80
2022-12-23T11:41:25.089Z,31.20
2022-12-23T11:44:00.581Z,28.13
2022-12-23T11:46:33.745Z,32.67
2022-12-23T11:49:13.317Z,35.83
2022-12-23T11:51:39.768Z,32.60
2022-12-23T11:54:06.171Z,39.80
2022-12-23T11:56:38.383Z,45.70
2022-12-23T11:59:18.658Z,40.28
2022-12-23T12:01:48.992Z,41.30
2022-12-23T12:04:23.737Z,45.95
2022-12-23T12:06:56.371Z,40.35
2022-12-23T12:09:24.737Z,42.60
2022-12-23T12:12:17.309Z,41.97
2022-12-23T12:14:54.208Z,45.03
2022-12-23T12:17:49.300Z,41.00
2022-12-23T12:20:30.557Z,37.50
2022-12-23T12:23:06.809Z,38.70
2022-12-23T12:25:42.166Z,37.15
2022-12-23T12:28:18.074Z,40.57
2022-12-23T12:30:52.082Z,36.33
2022-12-23T12:33:25.399Z,40.42
2022-12-23T12:36:34.495Z,36.83
2022-12-23T12:39:01.034Z,33.95
2022-12-23T12:41:37.082Z,35.80
2022-12-23T12:44:15.707Z,33.25
2022-12-23T12:46:50.854Z,30.20
2022-12-23T12:49:36.188Z,29.73
2022-12-23T12:52:19.404Z,28.48
2022-12-23T12:54:52.851Z,29.67
2022-12-23T12:57:22.438Z,29.40
2022-12-23T12:59:59.945Z,29.83
2022-12-23T13:03:07.817Z,31.13
2022-12-23T13:05:56.558Z,24.52
2022-12-23T13:08:48.606Z,25.97
2022-12-23T13:11:45.196Z,27.48
2022-12-23T13:14:30.647Z,30.23
2022-12-23T13:17:12.479Z,30.20
2022-12-23T13:19:45.990Z,29.50
2022-12-23T13:22:18.120Z,28.60
2022-12-23T13:25:05.782Z,26.60
2022-12-23T13:27:44.861Z,27.90
2022-12-23T13:30:17.849Z,30.52
2022-12-23T13:33:05.139Z,28.27
2022-12-23T13:36:05.662Z,27.90
2022-12-23T13:38:44.615Z,31.67
2022-12-23T13:41:29.725Z,27.88
2022-12-23T13:44:09.534Z,28.63
2022-12-23T13:46:42.138Z,27.77
2022-12-23T13:49:42.886Z,27.20
2022-12-23T13:52:24.583Z,25.52
2022-12-23T13:55:06.086Z,28.08
2022-12-23T13:57:53.741Z,25.55
2022-12-23T14:00:20.184Z,23.85
2022-12-23T14:03:09.500Z,22.17
2022-12-23T14:05:41.150Z,23.27
2022-12-23T14:08:19.810Z,24.20
2022-12-23T14:11:00.610Z,24.63
2022-12-23T14:13:42.137Z,26.17
2022-12-23T14:16:29.508Z,22.07
2022-12-23T14:18:58.902Z,26.05
2022-12-23T14:21:43.909Z,24.23
2022-12-23T14:24:16.194Z,24.58
2022-12-23T14:26:45.627Z,24.27
2022-12-23T14:29:14.904Z,33.67
2022-12-23T14:31:45.245Z,25.38
2022-12-23T14:34:17.489Z,24.63
2022-12-23T14:37:16.590Z,21.70
2022-12-23T14:39:43.821Z,21.50
2022-12-23T14:42:15.000Z,23.60
2022-12-23T14:44:46.287Z,24.02
2022-12-23T14:47:33.824Z,20.65
2022-12-23T14:50:42.582Z,21.08
2022-12-23T14:53:26.347Z,20.65
2022-12-23T14:56:10.989Z,21.10
2022-12-23T14:58:39.418Z,19.60
2022-12-23T15:01:12.873Z,19.20
2022-12-23T15:03:46.822Z,19.23
2022-12-23T15:06:20.643Z,19.55
2022-12-23T15:08:50.762Z,17.40
2022-12-23T15:11:28.660Z,21.02
2022-12-23T15:13:57.033Z,20.95
2022-12-23T15:16:31.584Z,21.88
2022-12-23T15:19:02.214Z,23.65
2022-12-23T15:21:31.715Z,18.53
2022-12-23T15:23:58.447Z,20.98
2022-12-23T15:26:28.836Z,21.48
2022-12-23T15:28:57.356Z,19.77
2022-12-23T15:31:31.288Z,22.65
2022-12-23T15:34:03.922Z,22.07
2022-12-23T15:36:37.607Z,19.35
2022-12-23T15:39:09.879Z,16.88
2022-12-23T15:41:47.138Z,17.77
2022-12-23T15:44:20.258Z,17.45
2022-12-23T15:46:46.799Z,20.70
2022-12-23T15:49:13.478Z,17.92
2022-12-23T15:54:36.783Z,20.00
2022-12-23T15:57:04.547Z,21.35
2022-12-23T15:59:38.256Z,21.13
2022-12-23T16:02:59.214Z,21.17
2022-12-23T16:05:31.118Z,18.95
2022-12-23T16:08:16.202Z,22.15
2022-12-23T16:10:55.334Z,20.80
2022-12-23T16:13:21.818Z,18.60
2022-12-23T16:15:48.401Z,19.38
2022-12-23T16:18:31.656Z,23.13
2022-12-23T16:21:02.244Z,21.75
2022-12-23T16:23:31.105Z,16.70
2022-12-23T16:26:00.273Z,18.07
2022-12-23T16:28:29.866Z,23.98
2022-12-23T16:30:58.373Z,18.38
2022-12-23T16:33:30.619Z,24.50
2022-12-23T16:36:26.047Z,20.60
2022-12-23T16:38:56.228Z,19.17
2022-12-23T16:41:22.944Z,23.08
2022-12-23T16:43:52.459Z,20.38
2022-12-23T16:46:21.854Z,14.75
2022-12-23T16:48:55.624Z,15.68
2022-12-23T16:51:23.041Z,14.70
2022-12-23T16:53:51.183Z,17.40
2022-12-23T16:56:20.970Z,17.05
2022-12-23T16:58:47.822Z,16.35
2022-12-23T17:01:18.436Z,23.83
2022-12-23T17:03:44.844Z,19.77
2022-12-23T17:06:13.944Z,16.83
2022-12-23T17:08:40.889Z,19.80
2022-12-23T17:11:17.372Z,20.77
2022-12-23T17:13:44.610Z,18.27
2022-12-23T17:16:19.217Z,19.67
2022-12-23T17:18:49.766Z,19.60
2022-12-23T17:21:28.926Z,21.50
2022-12-23T17:24:03.411Z,21.60
2022-12-23T17:26:30.055Z,20.48
2022-12-23T17:28:56.479Z,23.50
2022-12-23T17:31:27.009Z,21.67
2022-12-23T17:33:54.246Z,24.13
2022-12-23T17:36:20.839Z,26.58
2022-12-23T17:38:47.299Z,19.45
2022-12-23T17:41:22.340Z,18.70
2022-12-23T17:43:48.863Z,19.25
2022-12-23T17:46:15.418Z,20.77
2022-12-23T17:48:42.992Z,22.52
2022-12-23T17:51:15.425Z,18.95
2022-12-23T17:53:41.829Z,16.17
2022-12-23T17:56:17.409Z,17.27
2022-12-23T17:58:45.192Z,20.92
2022-12-23T18:01:40.985Z,17.55
2022-12-23T18:04:08.043Z,14.65
2022-12-23T18:06:35.017Z,17.43
2022-12-23T18:09:01.398Z,18.10
2022-12-23T18:11:34.720Z,16.35
2022-12-23T18:14:03.107Z,14.52
2022-12-23T18:16:29.996Z,14.07
2022-12-23T18:18:57.042Z,18.83
2022-12-23T18:21:28.430Z,17.88
2022-12-23T18:23:59.597Z,14.55
2022-12-23T18:26:26.281Z,20.48
2022-12-23T18:28:54.070Z,14.82
2022-12-23T18:31:23.918Z,15.77
2022-12-23T18:33:51.183Z,20.17
2022-12-23T18:36:22.179Z,15.45
2022-12-23T18:38:48.734Z,24.27
2022-12-23T18:41:15.260Z,19.05
2022-12-23T18:43:41.694Z,29.03
2022-12-23T18:46:08.236Z,25.50
2022-12-23T18:48:34.586Z,26.63
2022-12-23T18:51:01.027Z,30.52
2022-12-23T18:53:27.657Z,35.45
2022-12-23T18:55:54.800Z,27.27
2022-12-23T18:58:21.925Z,30.95
2022-12-23T19:00:50.313Z,35.63
2022-12-23T19:03:26.377Z,29.23
2022-12-23T19:05:54.585Z,35.85
2022-12-23T19:08:26.667Z,35.00
2022-12-23T19:10:54.776Z,37.03
2022-12-23T19:13:21.257Z,42.95
2022-12-23T19:15:47.739Z,32.58
2022-12-23T19:18:16.252Z,35.58
2022-12-23T19:20:43.963Z,38.67
2022-12-23T19:23:11.381Z,32.85
2022-12-23T19:25:41.797Z,32.78
2022-12-23T19:28:08.506Z,34.42
2022-12-23T19:30:35.239Z,40.78
2022-12-23T19:33:01.683Z,36.10
2022-12-23T19:35:28.270Z,28.63
2022-12-23T19:37:54.740Z,32.47
2022-12-23T19:40:21.567Z,38.05
2022-12-23T19:42:48.037Z,30.08
2022-12-23T19:45:14.433Z,34.33
2022-12-23T19:47:40.915Z,40.85
2022-12-23T19:50:08.218Z,36.35
2022-12-23T19:52:34.875Z,36.33
2022-12-23T19:55:01.394Z,25.88
2022-12-23T19:57:27.878Z,33.10
2022-12-23T19:59:54.240Z,30.60
2022-12-23T20:02:20.782Z,37.80
2022-12-23T20:04:47.412Z,22.45
2022-12-23T20:07:13.850Z,28.83
2022-12-23T20:09:40.745Z,34.20
2022-12-23T20:12:07.270Z,30.77
2022-12-23T20:14:34.604Z,36.70
2022-12-23T20:17:01.349Z,35.28
2022-12-23T20:19:28.108Z,30.73
2022-12-23T20:21:54.770Z,32.60
2022-12-23T20:24:21.157Z,29.08
2022-12-23T20:26:47.898Z,40.67
2022-12-23T20:29:14.446Z,24.17
2022-12-23T20:31:41.356Z,32.75
2022-12-23T20:34:09.061Z,25.27
2022-12-23T20:36:36.443Z,27.77
2022-12-23T20:39:04.223Z,29.13
2022-12-23T20:41:31.837Z,28.73
2022-12-23T20:46:45.213Z,20.07
2022-12-23T20:49:11.974Z,19.67
2022-12-23T20:51:38.354Z,20.60
2022-12-23T20:54:04.802Z,16.70
2022-12-23T20:56:31.814Z,17.25
2022-12-23T20:58:59.455Z,22.03
2022-12-23T21:01:38.378Z,24.38
2022-12-23T21:04:07.595Z,19.95
2022-12-23T21:06:34.789Z,19.20
2022-12-23T21:09:02.476Z,15.65
2022-12-23T21:11:30.446Z,14.03
2022-12-23T21:14:02.628Z,13.55
2022-12-23T21:16:32.501Z,17.05
2022-12-23T21:18:59.984Z,14.27
2022-12-23T21:21:27.942Z,17.98
2022-12-23T21:23:56.209Z,16.57
2022-12-23T21:26:24.892Z,14.90
2022-12-23T21:28:53.461Z,16.77
2022-12-23T21:31:22.285Z,15.38
2022-12-23T21:33:49.813Z,17.23
2022-12-23T21:36:20.392Z,12.37
2022-12-23T21:38:48.145Z,21.38
2022-12-23T21:41:18.056Z,14.38
2022-12-23T21:43:44.516Z,15.60
2022-12-23T21:46:17.708Z,15.35
2022-12-23T21:48:44.994Z,14.80
2022-12-23T21:51:26.028Z,14.00
2022-12-23T21:53:54.935Z,9.88
2022-12-23T21:56:28.203Z,10.70
2022-12-23T21:58:59.195Z,15.80
2022-12-23T22:01:26.917Z,12.93
2022-12-23T22:03:54.213Z,11.20
2022-12-23T22:06:32.469Z,20.83
2022-12-23T22:08:59.772Z,13.05
2022-12-23T22:11:29.431Z,13.77
2022-12-23T22:13:57.778Z,11.47
2022-12-23T22:16:26.035Z,17.38
2022-12-23T22:18:53.128Z,15.45
2022-12-23T22:21:21.981Z,13.90
2022-12-23T22:23:49.477Z,11.23
2022-12-23T22:26:25.244Z,19.80
2022-12-23T22:28:56.206Z,15.70
2022-12-23T22:31:31.081Z,14.63
2022-12-23T22:33:57.669Z,13.82
2022-12-23T22:36:24.233Z,13.30
2022-12-23T22:38:53.295Z,17.13
2022-12-23T22:41:20.167Z,14.70
2022-12-23T22:43:46.781Z,17.05
2022-12-23T22:46:13.599Z,16.08
2022-12-23T22:48:40.233Z,13.95
2022-12-23T22:51:17.508Z,15.93
2022-12-23T22:53:44.585Z,14.77
2022-12-23T22:56:13.169Z,17.27
2022-12-23T22:58:39.851Z,16.23
2022-12-23T23:01:07.488Z,15.85
2022-12-23T23:03:33.997Z,13.47
2022-12-23T23:06:07.027Z,17.77
2022-12-23T23:08:34.862Z,13.23
2022-12-23T23:11:05.091Z,17.13
2022-12-23T23:13:34.345Z,20.65
2022-12-23T23:16:02.513Z,23.13
2022-12-23T23:18:29.982Z,16.75
2022-12-23T23:20:56.830Z,13.00
2022-12-23T23:23:23.596Z,18.88
2022-12-23T23:25:50.209Z,19.08
2022-12-23T23:28:16.674Z,21.63
2022-12-23T23:30:43.195Z,23.13
2022-12-23T23:33:10.564Z,15.98
2022-12-23T23:35:37.400Z,18.52
2022-12-23T23:38:04.119Z,22.00
2022-12-23T23:40:30.573Z,13.47
2022-12-23T23:42:57.102Z,14.10
2022-12-23T23:45:23.837Z,11.93
2022-12-23T23:47:50.429Z,13.45
2022-12-23T23:50:16.799Z,20.75
2022-12-23T23:52:43.210Z,11.30
2022-12-23T23:55:10.177Z,14.30
2022-12-23T23:57:36.668Z,19.25
